Time;durP1;ratioP1;P1;durP2;ratioP2;P2;SDS_P1;SDS_P2;PMS_P1;PMS_P2;Temp;Humidity;BMP_temperature;BMP_pressure;BME280_temperature;BME280_humidity;BME280_pressure;Samples;Min_cycle;Max_cycle;Signal;HPM_P1;HPM_P2
2021/05/02 00:01:38;;;;;;;8.73;5.93;;;6.50;99.90;;;;;;6124981;23;20022;-80
2021/05/02 00:04:06;;;;;;;7.13;5.30;;;6.60;99.90;;;;;;6124704;23;20028;-80
2021/05/02 00:06:33;;;;;;;7.35;5.75;;;6.60;99.90;;;;;;6124807;23;20049;-80
2021/05/02 00:09:01;;;;;;;8.38;6.10;;;6.50;99.90;;;;;;6124899;23;20486;-79
2021/05/02 00:11:33;;;;;;;7.45;5.95;;;6.50;99.90;;;;;;6124023;23;20463;-80
2021/05/02 00:14:02;;;;;;;8.50;6.03;;;6.50;99.90;;;;;;6124352;23;20025;-80
2021/05/02 00:16:36;;;;;;;8.32;6.38;;;6.50;99.90;;;;;;6101808;23;20097;-80
2021/05/02 00:19:08;;;;;;;7.40;6.30;;;6.50;99.90;;;;;;6125029;23;20018;-80
2021/05/02 00:21:36;;;;;;;7.80;6.20;;;6.50;99.90;;;;;;6100734;23;20056;-80
2021/05/02 00:24:04;;;;;;;7.78;5.63;;;6.50;99.90;;;;;;6124752;23;20411;-80
2021/05/02 00:26:32;;;;;;;8.07;6.18;;;6.50;99.90;;;;;;6124734;23;20351;-80
2021/05/02 00:29:01;;;;;;;7.75;5.60;;;6.50;99.90;;;;;;6124640;23;20029;-80
2021/05/02 00:31:28;;;;;;;7.05;5.57;;;6.40;99.90;;;;;;6124921;23;20037;-80
2021/05/02 00:33:56;;;;;;;7.55;5.93;;;6.40;99.90;;;;;;6124413;23;20066;-80
2021/05/02 00:36:25;;;;;;;8.30;6.18;;;6.40;99.90;;;;;;6124816;23;20018;-80
2021/05/02 00:38:53;;;;;;;7.80;6.28;;;6.40;99.90;;;;;;6124853;23;20362;-80
2021/05/02 00:41:31;;;;;;;6.97;5.40;;;6.40;99.90;;;;;;6124735;23;20018;-80
2021/05/02 00:44:01;;;;;;;8.65;7.22;;;6.40;99.90;;;;;;6124552;23;20018;-80
2021/05/02 00:46:42;;;;;;;6.93;5.78;;;6.30;99.90;;;;;;6100684;23;20025;-80
2021/05/02 00:49:32;;;;;;;8.32;5.97;;;6.40;99.90;;;;;;6124637;23;20018;-80
2021/05/02 00:52:07;;;;;;;7.20;5.45;;;6.40;99.90;;;;;;6124733;23;20022;-80
2021/05/02 00:54:45;;;;;;;7.28;4.93;;;6.30;99.90;;;;;;6124635;23;20021;-80
2021/05/02 00:57:23;;;;;;;7.05;5.15;;;6.30;99.90;;;;;;6124612;23;20029;-80
2021/05/02 01:00:03;;;;;;;5.80;4.75;;;6.30;99.90;;;;;;6124116;23;20026;-80
2021/05/02 01:02:33;;;;;;;7.53;4.70;;;6.30;99.90;;;;;;6124182;23;20025;-80
2021/05/02 01:05:07;;;;;;;6.10;4.78;;;6.30;99.90;;;;;;6123822;23;20026;-80
2021/05/02 01:07:37;;;;;;;6.82;5.00;;;6.20;99.90;;;;;;6124509;23;20018;-80
2021/05/02 01:10:18;;;;;;;5.65;4.25;;;6.20;99.90;;;;;;6124320;23;20022;-80
2021/05/02 01:12:52;;;;;;;5.40;4.25;;;6.30;99.90;;;;;;6124623;23;20462;-80
2021/05/02 01:15:25;;;;;;;5.85;4.63;;;6.20;99.90;;;;;;6124319;23;20018;-80
2021/05/02 01:18:05;;;;;;;6.25;5.00;;;6.20;99.90;;;;;;6124022;23;20049;-80
2021/05/02 01:20:41;;;;;;;7.03;5.20;;;6.20;99.90;;;;;;6123879;23;20451;-80
2021/05/02 01:23:35;;;;;;;6.70;5.10;;;6.20;99.90;;;;;;6123618;23;20029;-80
2021/05/02 01:26:02;;;;;;;7.15;5.45;;;6.20;99.90;;;;;;6148355;23;20025;-80
2021/05/02 01:28:29;;;;;;;8.57;5.70;;;6.20;99.90;;;;;;6123091;23;20022;-80
2021/05/02 01:30:57;;;;;;;6.25;5.60;;;6.20;99.90;;;;;;6124409;23;20018;-80
2021/05/02 01:33:25;;;;;;;7.05;5.45;;;6.20;99.90;;;;;;6099961;23;20026;-80
2021/05/02 01:35:56;;;;;;;6.13;4.50;;;6.20;99.90;;;;;;6124191;23;20026;-80
2021/05/02 01:38:25;;;;;;;7.40;5.28;;;6.20;99.90;;;;;;6148672;23;20057;-80
2021/05/02 01:40:58;;;;;;;8.15;5.18;;;6.20;99.90;;;;;;6124038;23;20050;-80
2021/05/02 01:43:31;;;;;;;7.07;5.20;;;6.20;99.90;;;;;;6122850;23;20014;-80
2021/05/02 01:45:58;;;;;;;8.55;6.55;;;6.20;99.90;;;;;;6124296;23;20038;-80
2021/05/02 01:48:28;;;;;;;8.00;5.05;;;6.20;99.90;;;;;;6123899;23;20018;-80
2021/05/02 01:51:03;;;;;;;7.13;5.53;;;6.10;99.90;;;;;;6124249;23;20026;-80
2021/05/02 01:53:31;;;;;;;9.15;6.40;;;6.10;99.90;;;;;;6124104;23;20047;-80
2021/05/02 01:56:04;;;;;;;8.77;6.55;;;6.10;99.90;;;;;;6124066;23;20104;-80
2021/05/02 01:58:34;;;;;;;9.15;6.63;;;6.10;99.90;;;;;;6099881;23;20033;-80
2021/05/02 02:01:10;;;;;;;8.85;6.68;;;6.10;99.90;;;;;;6124059;23;20026;-80
2021/05/02 02:03:37;;;;;;;12.60;7.22;;;6.10;99.90;;;;;;6123489;23;20453;-80
2021/05/02 02:06:06;;;;;;;10.45;7.32;;;6.10;99.90;;;;;;6124031;23;20077;-80
2021/05/02 02:08:38;;;;;;;10.63;7.07;;;6.10;99.90;;;;;;6123959;23;20014;-80
2021/05/02 02:11:11;;;;;;;10.83;7.90;;;6.10;99.90;;;;;;6124273;23;20058;-80
2021/05/02 02:13:39;;;;;;;9.35;6.53;;;6.10;99.90;;;;;;6123506;23;20466;-80
2021/05/02 02:16:08;;;;;;;10.43;6.97;;;6.00;99.90;;;;;;6123806;23;20022;-80
2021/05/02 02:18:41;;;;;;;9.65;6.95;;;6.00;99.90;;;;;;6124446;23;20425;-80
2021/05/02 02:21:12;;;;;;;11.07;6.78;;;6.00;99.90;;;;;;6099911;23;20083;-79
2021/05/02 02:23:41;;;;;;;9.10;6.85;;;6.00;99.90;;;;;;6123532;23;20049;-80
2021/05/02 02:26:25;;;;;;;9.07;6.50;;;5.90;99.90;;;;;;6123668;23;20077;-80
2021/05/02 02:28:59;;;;;;;9.27;6.88;;;5.80;99.90;;;;;;6124140;23;20457;-80
2021/05/02 02:31:34;;;;;;;12.48;7.47;;;5.80;99.90;;;;;;6124054;23;20475;-80
2021/05/02 02:34:05;;;;;;;10.10;7.07;;;5.70;99.90;;;;;;6123862;23;20022;-80
2021/05/02 02:36:33;;;;;;;10.02;7.50;;;5.60;99.90;;;;;;6123909;23;20458;-80
2021/05/02 02:39:06;;;;;;;10.50;7.82;;;5.60;99.90;;;;;;6124106;23;20010;-80
2021/05/02 02:41:38;;;;;;;11.63;7.75;;;5.60;99.90;;;;;;6123764;23;20509;-80
2021/05/02 02:44:10;;;;;;;10.20;7.70;;;5.50;99.90;;;;;;6099755;23;20045;-80
2021/05/02 02:46:48;;;;;;;10.40;7.45;;;5.40;99.90;;;;;;6124034;23;20336;-80
2021/05/02 02:49:20;;;;;;;12.52;8.48;;;5.40;99.90;;;;;;6123910;23;20044;-80
2021/05/02 02:51:52;;;;;;;8.77;6.90;;;5.40;99.90;;;;;;6099732;23;20022;-80
2021/05/02 02:54:26;;;;;;;12.57;8.50;;;5.40;99.90;;;;;;6123550;23;20018;-80
2021/05/02 02:56:56;;;;;;;12.05;8.40;;;5.40;99.90;;;;;;6099543;23;20022;-80
2021/05/02 02:59:30;;;;;;;10.80;8.13;;;5.30;99.90;;;;;;6099273;23;20101;-80
2021/05/02 03:02:05;;;;;;;10.25;7.80;;;5.30;99.90;;;;;;6123709;23;20022;-80
2021/05/02 03:04:36;;;;;;;11.63;8.30;;;5.20;99.90;;;;;;6123638;23;20025;-80
2021/05/02 03:07:05;;;;;;;12.25;7.78;;;5.20;99.90;;;;;;6123625;23;20025;-80
2021/05/02 03:09:36;;;;;;;10.68;8.05;;;5.10;99.90;;;;;;6123688;23;20359;-80
2021/05/02 03:12:11;;;;;;;12.75;9.40;;;5.10;99.90;;;;;;6123594;23;20022;-80
2021/05/02 03:14:39;;;;;;;11.48;8.43;;;5.10;99.90;;;;;;6123303;23;20022;-80
2021/05/02 03:17:08;;;;;;;11.52;8.73;;;5.10;99.90;;;;;;6123918;23;20076;-80
2021/05/02 03:19:45;;;;;;;12.80;9.13;;;5.00;99.90;;;;;;6123776;23;20073;-80
2021/05/02 03:22:30;;;;;;;13.48;8.30;;;4.90;99.90;;;;;;6123343;23;20026;-80
2021/05/02 03:25:01;;;;;;;11.88;8.48;;;4.90;99.90;;;;;;6123175;23;20076;-80
2021/05/02 03:27:36;;;;;;;12.88;9.27;;;4.90;99.90;;;;;;6099514;23;20074;-80
2021/05/02 03:30:08;;;;;;;14.18;9.05;;;4.90;99.90;;;;;;6125121;23;20014;-80
2021/05/02 03:32:37;;;;;;;12.55;9.45;;;4.90;99.90;;;;;;6123546;23;20026;-80
2021/05/02 03:35:06;;;;;;;11.45;9.10;;;4.90;99.90;;;;;;6123235;23;20026;-80
2021/05/02 03:37:36;;;;;;;11.70;8.95;;;4.90;99.90;;;;;;6123429;23;20026;-80
2021/05/02 03:40:08;;;;;;;12.23;9.38;;;4.90;99.90;;;;;;6123410;23;20488;-80
2021/05/02 03:42:36;;;;;;;12.15;9.00;;;4.90;99.90;;;;;;6123497;23;20017;-80
2021/05/02 03:45:04;;;;;;;12.23;9.15;;;4.80;99.90;;;;;;6123461;23;20025;-80
2021/05/02 03:47:31;;;;;;;13.38;9.50;;;4.80;99.90;;;;;;6123607;23;20028;-80
2021/05/02 03:49:59;;;;;;;11.68;8.65;;;4.80;99.90;;;;;;6123794;23;20383;-80
2021/05/02 03:52:26;;;;;;;13.15;10.18;;;4.90;99.90;;;;;;6099503;23;20026;-80
2021/05/02 03:54:54;;;;;;;12.50;9.80;;;4.80;99.90;;;;;;6123251;23;20022;-80
2021/05/02 03:57:22;;;;;;;16.35;10.55;;;4.80;99.90;;;;;;6123064;23;20029;-80
2021/05/02 03:59:54;;;;;;;16.17;11.07;;;4.80;99.90;;;;;;6123303;23;20041;-80
2021/05/02 04:02:26;;;;;;;15.10;11.23;;;4.70;99.90;;;;;;6123548;23;20416;-80
2021/05/02 04:04:58;;;;;;;15.63;10.65;;;4.70;99.90;;;;;;6101896;23;20049;-80
2021/05/02 04:07:25;;;;;;;15.23;10.80;;;4.70;99.90;;;;;;6125320;23;20017;-80
2021/05/02 04:09:52;;;;;;;15.48;10.63;;;4.70;99.90;;;;;;6124944;23;20371;-80
2021/05/02 04:12:24;;;;;;;13.90;10.73;;;4.60;99.90;;;;;;6125452;23;20026;-80
2021/05/02 04:14:52;;;;;;;14.80;11.48;;;4.60;99.90;;;;;;6124808;23;20030;-80
2021/05/02 04:17:24;;;;;;;14.82;11.15;;;4.60;99.90;;;;;;6125231;23;20032;-80
2021/05/02 04:19:52;;;;;;;14.82;11.48;;;4.60;99.90;;;;;;6125005;23;20029;-80
2021/05/02 04:22:20;;;;;;;13.23;10.32;;;4.60;99.90;;;;;;6124850;23;20109;-80
2021/05/02 04:24:48;;;;;;;13.52;9.93;;;4.60;99.90;;;;;;6124777;23;20029;-80
2021/05/02 04:27:16;;;;;;;15.35;11.80;;;4.60;99.90;;;;;;6125149;23;20069;-79
2021/05/02 04:29:49;;;;;;;14.52;10.90;;;4.60;99.90;;;;;;6125339;23;20358;-80
2021/05/02 04:32:16;;;;;;;16.85;11.20;;;4.60;99.90;;;;;;6125055;23;20458;-80
2021/05/02 04:34:43;;;;;;;14.80;10.77;;;4.60;99.90;;;;;;6124864;23;20026;-80
2021/05/02 04:37:12;;;;;;;13.70;10.55;;;4.60;99.90;;;;;;6124890;23;20596;-80
2021/05/02 04:39:39;;;;;;;12.20;10.32;;;4.60;99.90;;;;;;6100342;23;20022;-80
2021/05/02 04:42:07;;;;;;;14.68;10.48;;;4.60;99.90;;;;;;6124891;23;20457;-80
2021/05/02 04:44:34;;;;;;;14.10;10.68;;;4.50;99.90;;;;;;6124429;23;20467;-80
2021/05/02 04:47:02;;;;;;;15.05;11.05;;;4.60;99.90;;;;;;6124944;23;20402;-80
2021/05/02 04:49:30;;;;;;;13.32;10.10;;;4.60;99.90;;;;;;6124689;23;20050;-80
2021/05/02 04:51:58;;;;;;;17.65;11.65;;;4.60;99.90;;;;;;6124690;23;20020;-80
2021/05/02 04:54:25;;;;;;;15.43;11.40;;;4.60;99.90;;;;;;6124490;23;20396;-80
2021/05/02 04:56:52;;;;;;;14.48;11.15;;;4.60;99.90;;;;;;6124493;23;20029;-80
2021/05/02 04:59:19;;;;;;;13.50;10.48;;;4.70;99.90;;;;;;6124666;23;20050;-80
2021/05/02 05:01:52;;;;;;;16.05;10.88;;;4.70;99.90;;;;;;6124527;23;20511;-80
2021/05/02 05:04:20;;;;;;;13.85;10.48;;;4.70;99.90;;;;;;6124355;23;20120;-80
2021/05/02 05:06:54;;;;;;;13.70;10.15;;;4.80;99.90;;;;;;6124401;23;20025;-80
2021/05/02 05:09:23;;;;;;;15.23;11.45;;;4.80;99.90;;;;;;6124440;23;20033;-80
2021/05/02 05:11:50;;;;;;;15.20;11.13;;;4.80;99.90;;;;;;6124711;23;20022;-80
2021/05/02 05:14:18;;;;;;;14.82;11.10;;;4.80;99.90;;;;;;6124395;23;20018;-80
2021/05/02 05:16:45;;;;;;;15.65;11.45;;;4.80;99.90;;;;;;6124509;23;20025;-80
2021/05/02 05:19:13;;;;;;;17.08;12.07;;;4.80;99.90;;;;;;6124705;23;20018;-80
2021/05/02 05:21:45;;;;;;;21.13;15.17;;;4.80;99.90;;;;;;6124847;23;20053;-74
2021/05/02 05:24:17;;;;;;;19.10;13.23;;;4.80;99.90;;;;;;6123974;23;20261;-77
2021/05/02 05:26:43;;;;;;;18.15;13.27;;;4.80;99.90;;;;;;6124032;23;20025;-77
2021/05/02 05:29:09;;;;;;;18.55;12.65;;;4.80;99.90;;;;;;6123766;23;20022;-77
2021/05/02 05:31:35;;;;;;;18.55;12.48;;;4.80;99.90;;;;;;6123451;23;20026;-77
2021/05/02 05:34:02;;;;;;;18.15;12.50;;;4.80;99.90;;;;;;6123006;23;20026;-77
2021/05/02 05:36:28;;;;;;;27.15;18.85;;;4.80;99.90;;;;;;6123668;23;20395;-77
2021/05/02 05:38:54;;;;;;;43.78;28.13;;;4.90;99.90;;;;;;6123464;23;20099;-77
2021/05/02 05:41:21;;;;;;;21.95;15.68;;;4.90;99.90;;;;;;6123369;23;20022;-77
2021/05/02 05:43:52;;;;;;;25.63;16.77;;;4.90;99.90;;;;;;6122938;23;20077;-77
2021/05/02 05:46:23;;;;;;;21.75;15.43;;;4.90;99.90;;;;;;6123189;23;20018;-77
2021/05/02 05:48:50;;;;;;;23.45;17.02;;;4.90;99.90;;;;;;6123435;23;20021;-77
2021/05/02 05:51:18;;;;;;;21.00;14.60;;;4.90;99.90;;;;;;6098804;23;20019;-77
2021/05/02 05:53:45;;;;;;;22.05;15.25;;;4.90;99.90;;;;;;6122935;23;20408;-77
2021/05/02 05:56:11;;;;;;;24.58;17.13;;;4.90;99.90;;;;;;6123187;23;20077;-77
2021/05/02 05:58:37;;;;;;;20.08;14.65;;;4.90;99.90;;;;;;6123104;23;20097;-77
2021/05/02 06:01:04;;;;;;;23.20;16.73;;;4.90;99.90;;;;;;6098800;23;20087;-77
2021/05/02 06:03:35;;;;;;;26.35;18.23;;;4.90;99.90;;;;;;6122854;23;20021;-76
2021/05/02 06:06:01;;;;;;;21.58;15.95;;;4.90;99.90;;;;;;6122930;23;20050;-77
2021/05/02 06:08:28;;;;;;;24.75;17.95;;;5.00;99.90;;;;;;6123201;23;20018;-78
2021/05/02 06:10:54;;;;;;;37.20;25.88;;;4.90;99.90;;;;;;6123031;23;20018;-78
2021/05/02 06:13:20;;;;;;;26.23;18.73;;;5.00;99.90;;;;;;6123091;23;20036;-77
2021/05/02 06:15:52;;;;;;;33.90;21.95;;;5.00;99.90;;;;;;6122777;23;20052;-78
2021/05/02 06:18:23;;;;;;;59.15;31.23;;;5.00;99.90;;;;;;6123035;23;20413;-78
2021/05/02 06:20:55;;;;;;;64.47;31.95;;;5.00;99.90;;;;;;6123105;23;20510;-78
2021/05/02 06:23:21;;;;;;;87.43;44.30;;;5.00;99.90;;;;;;6098600;23;20036;-78
2021/05/02 06:25:47;;;;;;;62.65;34.88;;;5.00;99.90;;;;;;6122452;23;20022;-78
2021/05/02 06:28:14;;;;;;;36.13;23.98;;;5.00;99.90;;;;;;6122799;23;20459;-78
2021/05/02 06:30:40;;;;;;;30.13;21.38;;;5.00;99.90;;;;;;6098767;23;20092;-78
2021/05/02 06:33:06;;;;;;;25.17;18.33;;;5.10;99.90;;;;;;6122952;23;20026;-78
2021/05/02 06:35:33;;;;;;;28.15;20.15;;;5.10;99.90;;;;;;6122733;23;20053;-78
2021/05/02 06:37:59;;;;;;;54.03;31.60;;;5.10;99.90;;;;;;6123057;23;20077;-78
2021/05/02 06:40:32;;;;;;;26.83;20.70;;;5.10;99.90;;;;;;6122958;23;20123;-78
2021/05/02 06:43:03;;;;;;;25.20;19.67;;;5.10;99.90;;;;;;6123015;23;20018;-78
2021/05/02 06:45:29;;;;;;;20.80;16.00;;;5.20;99.90;;;;;;6122701;23;20068;-78
2021/05/02 06:47:56;;;;;;;24.30;18.30;;;5.20;99.90;;;;;;6123011;23;20022;-78
2021/05/02 06:50:22;;;;;;;24.95;17.65;;;5.20;99.90;;;;;;6122878;23;20081;-78
2021/05/02 06:52:48;;;;;;;22.95;18.42;;;5.10;99.90;;;;;;6098425;23;20405;-77
2021/05/02 06:55:15;;;;;;;25.25;18.75;;;5.10;99.90;;;;;;6122688;23;20029;-78
2021/05/02 06:57:46;;;;;;;24.42;19.27;;;5.10;99.90;;;;;;6122985;23;20025;-78
2021/05/02 07:00:13;;;;;;;23.52;18.08;;;5.20;99.90;;;;;;6122407;23;20026;-78
2021/05/02 07:02:44;;;;;;;22.50;17.45;;;5.10;99.90;;;;;;6122113;23;20391;-78
2021/05/02 07:05:16;;;;;;;21.92;16.95;;;5.20;99.90;;;;;;6121621;23;20403;-77
2021/05/02 07:07:42;;;;;;;22.45;17.67;;;5.10;99.90;;;;;;6122009;23;20029;-78
2021/05/02 07:10:14;;;;;;;20.95;17.13;;;5.10;99.90;;;;;;6121830;23;20018;-77
2021/05/02 07:12:41;;;;;;;23.00;18.52;;;5.20;99.90;;;;;;6121997;23;20026;-77
2021/05/02 07:15:08;;;;;;;24.35;17.85;;;5.10;99.90;;;;;;6097105;23;20101;-78
2021/05/02 07:17:35;;;;;;;26.70;18.17;;;5.20;99.90;;;;;;6121881;23;20073;-77
2021/05/02 07:20:02;;;;;;;22.08;17.40;;;5.10;99.90;;;;;;6127127;23;20104;-78
2021/05/02 07:22:34;;;;;;;20.13;15.57;;;5.10;99.90;;;;;;6123534;23;20609;-78
2021/05/02 07:25:00;;;;;;;19.45;15.10;;;5.20;99.90;;;;;;6121630;23;20042;-78
2021/05/02 07:27:32;;;;;;;22.98;16.85;;;5.20;99.90;;;;;;6121910;23;20105;-75
2021/05/02 07:29:58;;;;;;;18.48;13.75;;;5.20;99.90;;;;;;6122405;23;20022;-81
2021/05/02 07:32:24;;;;;;;17.73;13.25;;;5.20;99.90;;;;;;6121743;23;20565;-76
2021/05/02 07:34:51;;;;;;;16.73;14.00;;;5.20;99.90;;;;;;6123057;23;20053;-77
2021/05/02 07:37:22;;;;;;;17.45;13.70;;;5.20;99.90;;;;;;6121970;23;20076;-76
2021/05/02 07:39:54;;;;;;;16.17;12.95;;;5.20;99.90;;;;;;6122963;23;20041;-78
2021/05/02 07:42:26;;;;;;;12.18;10.52;;;5.20;99.90;;;;;;6123835;23;20014;-77
2021/05/02 07:44:58;;;;;;;12.38;9.88;;;5.10;99.90;;;;;;6123102;23;20018;-79
2021/05/02 07:47:24;;;;;;;13.35;10.85;;;5.10;99.90;;;;;;6123538;23;20025;-77
2021/05/02 07:49:50;;;;;;;16.15;12.15;;;5.10;99.90;;;;;;6124837;23;20014;-76
2021/05/02 07:52:22;;;;;;;13.18;10.10;;;5.10;99.90;;;;;;6123784;23;20025;-75
2021/05/02 07:54:48;;;;;;;13.40;11.30;;;5.10;99.90;;;;;;6123054;23;20021;-78
2021/05/02 07:57:19;;;;;;;14.95;10.50;;;5.10;99.90;;;;;;6123568;23;20405;-75
2021/05/02 07:59:46;;;;;;;12.82;10.40;;;5.20;99.90;;;;;;6123501;23;20025;-76
2021/05/02 08:02:18;;;;;;;14.18;10.45;;;5.20;99.90;;;;;;6125710;23;20068;-76
2021/05/02 08:04:45;;;;;;;16.40;12.50;;;5.10;99.90;;;;;;6122681;23;20077;-75
2021/05/02 08:07:16;;;;;;;14.05;11.38;;;5.10;99.90;;;;;;6123023;23;20049;-75
2021/05/02 08:09:48;;;;;;;18.45;13.02;;;5.20;99.90;;;;;;6124026;23;20073;-76
2021/05/02 08:12:15;;;;;;;16.20;12.65;;;5.30;99.90;;;;;;6122467;23;20025;-77
2021/05/02 08:14:42;;;;;;;19.92;14.90;;;5.30;99.90;;;;;;6122994;23;20026;-75
2021/05/02 08:17:13;;;;;;;15.85;12.60;;;5.40;99.90;;;;;;6125217;23;20045;-75
2021/05/02 08:19:44;;;;;;;20.58;15.90;;;5.50;99.90;;;;;;6100454;23;20447;-76
2021/05/02 08:22:17;;;;;;;18.27;14.70;;;5.50;99.90;;;;;;6123274;23;20018;-79
2021/05/02 08:24:48;;;;;;;21.27;15.93;;;5.60;99.90;;;;;;6123341;23;20064;-78
2021/05/02 08:27:15;;;;;;;22.48;17.30;;;5.60;99.90;;;;;;6123500;23;20026;-76
2021/05/02 08:29:46;;;;;;;20.92;16.08;;;5.60;99.90;;;;;;6123566;23;20021;-75
2021/05/02 08:32:17;;;;;;;23.73;17.58;;;5.70;99.90;;;;;;6125292;23;20050;-75
2021/05/02 08:34:44;;;;;;;23.27;17.63;;;5.70;99.90;;;;;;6122498;23;20018;-75
2021/05/02 08:37:15;;;;;;;24.05;18.30;;;5.80;99.90;;;;;;6123069;23;20073;-78
2021/05/02 08:39:41;;;;;;;25.40;19.38;;;5.80;99.90;;;;;;6122717;23;20095;-76
2021/05/02 08:42:08;;;;;;;24.50;19.48;;;5.90;99.90;;;;;;6124173;23;20018;-76
2021/05/02 08:44:41;;;;;;;22.80;18.25;;;5.90;99.90;;;;;;6123767;23;20069;-75
2021/05/02 08:47:13;;;;;;;20.55;16.88;;;6.00;99.90;;;;;;6122858;23;20045;-77
2021/05/02 08:49:45;;;;;;;24.35;18.17;;;6.00;99.90;;;;;;6122694;23;20042;-76
2021/05/02 08:52:16;;;;;;;24.73;18.55;;;5.90;99.90;;;;;;6122929;23;20077;-78
2021/05/02 08:54:42;;;;;;;26.23;20.70;;;5.90;99.90;;;;;;6123292;23;20042;-76
2021/05/02 08:57:13;;;;;;;25.45;19.40;;;5.90;99.90;;;;;;6122702;23;20097;-75
2021/05/02 08:59:45;;;;;;;26.70;19.77;;;6.00;99.90;;;;;;6122601;23;20042;-76
2021/05/02 09:02:27;;;;;;;25.13;20.17;;;6.00;99.90;;;;;;6122406;23;20065;-75
2021/05/02 09:05:03;;;;;;;23.52;18.98;;;6.10;99.90;;;;;;6121949;23;20049;-76
2021/05/02 09:07:42;;;;;;;26.85;20.17;;;6.20;99.90;;;;;;6122703;23;20022;-76
2021/05/02 09:10:13;;;;;;;28.10;20.42;;;6.20;99.90;;;;;;6122379;23;20443;-75
2021/05/02 09:12:42;;;;;;;27.65;21.40;;;6.30;99.90;;;;;;6122553;23;20463;-76
2021/05/02 09:15:20;;;;;;;22.30;17.42;;;6.50;99.90;;;;;;6121654;23;20017;-76
2021/05/02 09:17:53;;;;;;;25.48;19.75;;;6.50;99.90;;;;;;6098450;23;20065;-76
2021/05/02 09:20:44;;;;;;;27.90;19.88;;;6.50;99.90;;;;;;6122189;23;20105;-76
2021/05/02 09:23:13;;;;;;;28.67;22.05;;;6.50;99.90;;;;;;6122180;23;20018;-76
2021/05/02 09:25:48;;;;;;;32.30;22.52;;;6.40;99.90;;;;;;6121832;23;20021;-77
2021/05/02 09:28:39;;;;;;;31.67;24.83;;;6.50;99.90;;;;;;6122127;23;20014;-76
2021/05/02 09:31:14;;;;;;;29.88;23.63;;;6.50;99.90;;;;;;6121977;23;20478;-76
2021/05/02 09:33:46;;;;;;;34.58;25.75;;;6.40;99.90;;;;;;6122794;23;20018;-75
2021/05/02 09:36:15;;;;;;;34.15;26.42;;;6.30;99.90;;;;;;6122513;23;20081;-76
2021/05/02 09:38:42;;;;;;;33.60;26.02;;;6.30;99.90;;;;;;6098782;23;20030;-77
2021/05/02 09:41:16;;;;;;;37.05;25.85;;;6.30;99.90;;;;;;6122957;23;20022;-76
2021/05/02 09:43:49;;;;;;;29.15;23.67;;;6.30;99.90;;;;;;6122154;23;20094;-76
2021/05/02 09:46:34;;;;;;;37.88;29.58;;;6.30;99.90;;;;;;6122662;23;20105;-76
2021/05/02 09:49:12;;;;;;;32.80;26.27;;;6.20;99.90;;;;;;6122725;23;20514;-75
2021/05/02 09:51:53;;;;;;;32.72;24.23;;;6.20;99.90;;;;;;6124640;23;20014;-76
2021/05/02 09:54:21;;;;;;;29.77;23.55;;;6.20;99.90;;;;;;6121697;23;20085;-75
2021/05/02 09:56:52;;;;;;;34.83;25.60;;;6.20;99.90;;;;;;6119630;23;20026;-75
2021/05/02 09:59:33;;;;;;;28.08;22.17;;;6.30;99.90;;;;;;6122292;23;20466;-75
2021/05/02 10:02:10;;;;;;;32.85;24.45;;;6.40;99.90;;;;;;6122743;23;20060;-76
2021/05/02 10:04:44;;;;;;;30.67;22.80;;;6.50;99.90;;;;;;6122655;23;20021;-76
2021/05/02 10:07:21;;;;;;;36.22;25.83;;;6.60;99.90;;;;;;6122913;23;20099;-77
2021/05/02 10:09:48;;;;;;;30.17;23.58;;;6.70;99.90;;;;;;6122398;23;20065;-76
2021/05/02 10:12:20;;;;;;;33.47;24.75;;;6.70;99.90;;;;;;6122985;23;20096;-77
2021/05/02 10:14:52;;;;;;;31.27;25.07;;;6.80;99.90;;;;;;6121700;23;20367;-77
2021/05/02 10:17:24;;;;;;;33.65;25.10;;;6.90;99.90;;;;;;6122034;23;20018;-75
2021/05/02 10:19:55;;;;;;;31.40;25.27;;;7.00;99.90;;;;;;6121740;23;20018;-77
2021/05/02 10:22:27;;;;;;;32.97;25.15;;;7.10;99.90;;;;;;6122406;23;20018;-77
2021/05/02 10:24:54;;;;;;;32.88;25.88;;;7.10;99.90;;;;;;6120610;23;20077;-77
2021/05/02 10:27:25;;;;;;;30.75;23.92;;;7.10;99.90;;;;;;6122311;23;20018;-77
2021/05/02 10:29:56;;;;;;;33.25;25.25;;;7.10;99.90;;;;;;6121619;23;20650;-77
2021/05/02 10:32:33;;;;;;;35.15;26.25;;;7.20;99.90;;;;;;6121950;23;20025;-78
2021/05/02 10:35:09;;;;;;;35.90;26.63;;;7.20;99.90;;;;;;6122073;23;20018;-78
2021/05/02 10:37:38;;;;;;;34.90;26.85;;;7.10;99.90;;;;;;6121964;23;20380;-78
2021/05/02 10:40:23;;;;;;;38.22;27.65;;;7.10;99.90;;;;;;6097666;23;20028;-78
2021/05/02 10:43:01;;;;;;;34.42;25.23;;;7.00;99.90;;;;;;6121722;23;20045;-78
2021/05/02 10:45:30;;;;;;;39.70;29.58;;;7.00;99.90;;;;;;6121304;23;20022;-77
2021/05/02 10:48:06;;;;;;;40.50;30.52;;;7.00;99.90;;;;;;6121811;23;20022;-78
2021/05/02 10:50:39;;;;;;;36.67;27.38;;;7.00;99.90;;;;;;6121672;23;20026;-78
2021/05/02 10:53:17;;;;;;;40.10;28.40;;;7.10;99.90;;;;;;6097325;23;20033;-78
2021/05/02 10:56:06;;;;;;;44.92;33.90;;;7.10;99.90;;;;;;6121423;23;20366;-78
2021/05/02 10:58:40;;;;;;;38.55;28.42;;;7.30;99.90;;;;;;6121327;23;20455;-78
2021/05/02 11:01:24;;;;;;;39.70;29.52;;;7.40;99.90;;;;;;6097204;23;20022;-76
2021/05/02 11:03:53;;;;;;;40.67;30.02;;;7.50;99.90;;;;;;6120301;23;20440;-78
2021/05/02 11:06:45;;;;;;;38.30;28.25;;;7.70;99.90;;;;;;6121975;23;20024;-78
2021/05/02 11:09:17;;;;;;;34.65;27.38;;;7.80;99.90;;;;;;6089609;23;20041;-78
2021/05/02 11:11:47;;;;;;;42.95;31.63;;;7.80;99.90;;;;;;6097520;23;20022;-78
2021/05/02 11:14:25;;;;;;;36.70;29.08;;;7.80;99.90;;;;;;6123081;23;20022;-78
2021/05/02 11:16:58;;;;;;;34.50;27.77;;;7.80;99.90;;;;;;6124592;23;20030;-78
2021/05/02 11:19:32;;;;;;;35.40;26.38;;;7.90;99.90;;;;;;6124753;23;20340;-78
2021/05/02 11:22:04;;;;;;;42.92;32.58;;;7.90;99.90;;;;;;6124958;23;20569;-78
2021/05/02 11:24:43;;;;;;;34.25;27.45;;;8.00;99.90;;;;;;6124239;23;20010;-78
2021/05/02 11:32:26;;;;;;;35.00;27.95;;;8.40;99.90;;;;;;6124722;23;20115;-78
2021/05/02 11:35:08;;;;;;;29.27;24.42;;;8.70;99.90;;;;;;6124472;23;20026;-78
2021/05/02 11:38:05;;;;;;;34.30;26.90;;;8.90;99.90;;;;;;6124732;23;20038;-78
2021/05/02 11:40:34;;;;;;;27.60;23.02;;;9.10;99.90;;;;;;6124277;23;20026;-78
2021/05/02 11:43:16;;;;;;;26.58;21.95;;;9.00;99.90;;;;;;6124459;23;20022;-78
2021/05/02 11:45:51;;;;;;;26.17;22.98;;;9.00;99.90;;;;;;6124188;23;20024;-77
2021/05/02 11:48:35;;;;;;;26.23;21.05;;;8.80;99.90;;;;;;6124374;23;20096;-78
2021/05/02 11:51:15;;;;;;;23.38;19.70;;;8.70;99.90;;;;;;6122038;23;20026;-78
2021/05/02 11:53:47;;;;;;;27.92;20.92;;;8.70;99.90;;;;;;6123760;23;20411;-78
2021/05/02 11:56:26;;;;;;;30.30;22.30;;;8.70;99.90;;;;;;6122978;23;20098;-78
2021/05/02 11:59:02;;;;;;;28.52;21.33;;;8.60;99.90;;;;;;6123793;23;20121;-78
2021/05/02 12:01:30;;;;;;;24.45;19.45;;;8.60;99.90;;;;;;6124092;23;20069;-77
2021/05/02 12:04:07;;;;;;;25.33;19.55;;;8.70;99.90;;;;;;6123748;23;20109;-78
2021/05/02 12:06:35;;;;;;;26.70;20.55;;;8.70;99.90;;;;;;6123630;23;20518;-78
2021/05/02 12:09:25;;;;;;;23.05;19.13;;;8.90;99.90;;;;;;6123885;23;20517;-76
2021/05/02 12:12:00;;;;;;;22.17;19.35;;;9.00;99.90;;;;;;6099836;23;20355;-78
2021/05/02 12:14:29;;;;;;;22.00;19.02;;;9.10;99.90;;;;;;6123754;23;20395;-78
2021/05/02 12:16:59;;;;;;;21.83;18.73;;;9.30;99.90;;;;;;6123758;23;20458;-77
2021/05/02 12:19:33;;;;;;;22.15;18.98;;;9.30;99.90;;;;;;6124313;23;20076;-76
2021/05/02 12:22:00;;;;;;;24.67;20.40;;;9.50;99.90;;;;;;6128760;23;20022;-78
2021/05/02 12:24:32;;;;;;;20.95;18.42;;;9.70;99.90;;;;;;6131779;23;20041;-77
2021/05/02 12:27:07;;;;;;;20.75;18.05;;;9.90;99.90;;;;;;6124775;23;20025;-79
2021/05/02 12:29:39;;;;;;;20.17;18.00;;;9.90;99.90;;;;;;6124317;23;20022;-76
2021/05/02 12:32:09;;;;;;;19.63;17.53;;;9.90;99.90;;;;;;6124028;23;20069;-77
2021/05/02 12:34:47;;;;;;;23.95;21.17;;;9.80;99.90;;;;;;6123594;23;20643;-77
2021/05/02 12:37:23;;;;;;;23.08;19.20;;;9.70;99.90;;;;;;6124632;23;20068;-77
2021/05/02 12:39:58;;;;;;;20.05;17.23;;;9.70;99.90;;;;;;6124492;23;20123;-78
2021/05/02 12:42:37;;;;;;;21.17;18.95;;;9.80;99.90;;;;;;6127026;23;20017;-78
2021/05/02 12:45:07;;;;;;;20.95;17.17;;;10.00;99.90;;;;;;6131518;23;20045;-78
2021/05/02 12:47:44;;;;;;;18.90;16.90;;;10.00;99.90;;;;;;6125790;23;20018;-77
2021/05/02 12:50:12;;;;;;;19.70;17.60;;;9.80;99.90;;;;;;6102287;23;20484;-78
2021/05/02 12:52:46;;;;;;;18.92;16.70;;;9.80;99.90;;;;;;6132459;23;20022;-77
2021/05/02 12:55:27;;;;;;;20.50;18.20;;;9.80;99.90;;;;;;6126728;23;20490;-77
2021/05/02 12:57:54;;;;;;;21.20;18.25;;;9.70;99.90;;;;;;6125486;23;20018;-77
2021/05/02 13:00:36;;;;;;;22.50;18.10;;;9.80;99.90;;;;;;6125002;23;20018;-78
2021/05/02 13:03:30;;;;;;;21.77;18.20;;;9.70;99.90;;;;;;6104506;23;20022;-78
2021/05/02 13:06:11;;;;;;;20.48;17.30;;;9.60;99.90;;;;;;6105764;23;20029;-78
2021/05/02 13:08:39;;;;;;;19.25;15.93;;;9.60;99.90;;;;;;6127460;23;20018;-77